Time;durP1;ratioP1;P1;durP2;ratioP2;P2;SDS_P1;SDS_P2;PMS_P1;PMS_P2;Temp;Humidity;BMP_temperature;BMP_pressure;BME280_temperature;BME280_humidity;BME280_pressure;Samples;Min_cycle;Max_cycle;Signal;HPM_P1;HPM_P2
2021/07/03 00:01:15;;;;;;;18.70;12.02;;;;;;;13.19;100.00;101680.81;3580176;40;20029;-61
2021/07/03 00:03:42;;;;;;;18.30;12.30;;;;;;;13.16;100.00;101675.63;3583290;40;20024;-62
2021/07/03 00:06:08;;;;;;;20.02;13.27;;;;;;;13.10;100.00;101676.19;3582165;39;20032;-61
2021/07/03 00:08:35;;;;;;;20.85;12.38;;;;;;;13.09;100.00;101675.34;3580912;40;20114;-61
2021/07/03 00:11:05;;;;;;;18.55;12.23;;;;;;;13.05;100.00;101673.88;3580855;40;20050;-63
2021/07/03 00:13:31;;;;;;;20.00;12.02;;;;;;;13.02;100.00;101670.59;3580334;40;20044;-61
2021/07/03 00:15:58;;;;;;;17.83;12.20;;;;;;;13.08;100.00;101672.75;3579502;39;20050;-61
2021/07/03 00:18:25;;;;;;;20.88;12.05;;;;;;;13.04;100.00;101676.72;3584581;40;20506;-61
2021/07/03 00:20:51;;;;;;;20.35;12.52;;;;;;;13.03;100.00;101675.00;3581142;40;20390;-61
2021/07/03 00:23:18;;;;;;;17.33;11.05;;;;;;;13.03;100.00;101678.56;3587782;39;20085;-61
2021/07/03 00:25:45;;;;;;;17.08;11.48;;;;;;;13.05;100.00;101679.28;3581068;40;20044;-61
2021/07/03 00:28:13;;;;;;;17.27;11.57;;;;;;;12.92;100.00;101676.78;3583266;40;20504;-61
2021/07/03 00:30:39;;;;;;;20.75;12.18;;;;;;;12.88;100.00;101679.88;3583884;40;20062;-61
2021/07/03 00:33:06;;;;;;;19.17;11.88;;;;;;;12.96;100.00;101680.09;3623103;22;20113;-62
2021/07/03 00:35:33;;;;;;;20.95;11.88;;;;;;;12.98;100.00;101683.50;3573039;40;20056;-61
2021/07/03 00:37:59;;;;;;;16.80;11.00;;;;;;;13.03;100.00;101680.41;3571835;40;20418;-61
2021/07/03 00:40:28;;;;;;;20.05;11.05;;;;;;;12.99;100.00;101676.28;3573501;40;20048;-62
2021/07/03 00:42:54;;;;;;;20.27;12.48;;;;;;;12.97;100.00;101681.81;3572026;40;20121;-61
2021/07/03 00:45:22;;;;;;;17.30;12.27;;;;;;;12.93;100.00;101683.06;3574274;40;20354;-61
2021/07/03 00:47:48;;;;;;;18.45;12.20;;;;;;;12.96;100.00;101680.94;3574438;40;20033;-61
2021/07/03 00:50:15;;;;;;;17.42;11.43;;;;;;;12.91;100.00;101680.47;3574699;40;20419;-61
2021/07/03 00:52:44;;;;;;;23.10;12.90;;;;;;;12.92;100.00;101684.03;3573425;40;20045;-62
2021/07/03 00:55:11;;;;;;;19.05;12.05;;;;;;;13.01;100.00;101685.09;3574462;40;20044;-62
2021/07/03 00:57:38;;;;;;;20.20;12.10;;;;;;;13.06;100.00;101693.63;3573618;40;20029;-62
2021/07/03 01:00:06;;;;;;;17.95;11.02;;;;;;;13.03;100.00;101691.19;3571869;40;20400;-62
2021/07/03 01:02:34;;;;;;;17.65;12.23;;;;;;;13.06;100.00;101685.53;3573101;40;20032;-62
2021/07/03 01:05:01;;;;;;;16.10;11.35;;;;;;;12.95;100.00;101681.91;3574014;40;20046;-61
2021/07/03 01:07:27;;;;;;;16.73;11.63;;;;;;;12.95;100.00;101684.59;3574079;40;20033;-61
2021/07/03 01:09:54;;;;;;;19.35;12.02;;;;;;;13.03;100.00;101685.81;3575057;40;20058;-62
2021/07/03 01:12:20;;;;;;;18.73;12.00;;;;;;;12.91;100.00;101676.91;3574228;40;20443;-61
2021/07/03 01:14:49;;;;;;;15.98;10.27;;;;;;;12.92;100.00;101679.47;3573850;40;20419;-62
2021/07/03 01:17:16;;;;;;;17.60;11.60;;;;;;;12.92;100.00;101678.63;3578186;40;20060;-62
2021/07/03 01:19:46;;;;;;;21.45;12.70;;;;;;;12.87;100.00;101678.19;3579942;40;20028;-62
2021/07/03 01:22:15;;;;;;;17.10;11.70;;;;;;;12.82;100.00;101675.84;3576095;40;20086;-61
2021/07/03 01:24:42;;;;;;;17.98;12.40;;;;;;;12.93;100.00;101670.38;3573478;40;20041;-62
2021/07/03 01:27:11;;;;;;;17.45;11.98;;;;;;;12.92;100.00;101675.94;3576972;40;20623;-61
2021/07/03 01:29:38;;;;;;;16.15;11.57;;;;;;;12.90;100.00;101670.66;3573674;40;20032;-61
2021/07/03 01:32:05;;;;;;;16.30;11.48;;;;;;;12.91;100.00;101666.97;3573546;40;20032;-62
2021/07/03 01:34:32;;;;;;;19.55;12.43;;;;;;;12.83;100.00;101668.63;3571623;40;20070;-62
2021/07/03 01:36:59;;;;;;;20.15;11.73;;;;;;;12.82;100.00;101673.13;3574488;40;20048;-61
2021/07/03 01:39:28;;;;;;;17.15;12.23;;;;;;;12.81;100.00;101666.03;3573975;40;20033;-62
2021/07/03 01:41:56;;;;;;;15.70;10.70;;;;;;;12.86;100.00;101658.38;3572646;40;20307;-62
2021/07/03 01:44:25;;;;;;;16.13;12.10;;;;;;;12.81;100.00;101671.44;3572570;40;20297;-62
2021/07/03 01:46:52;;;;;;;17.42;11.07;;;;;;;12.75;100.00;101670.13;3576119;40;20041;-61
2021/07/03 01:49:19;;;;;;;16.58;11.35;;;;;;;12.84;100.00;101660.38;3574402;40;20072;-62
2021/07/03 01:51:46;;;;;;;17.10;11.55;;;;;;;12.87;100.00;101664.66;3575835;40;20077;-62
2021/07/03 01:54:12;;;;;;;19.00;11.82;;;;;;;12.80;100.00;101667.88;3573692;40;20370;-62
2021/07/03 01:56:42;;;;;;;18.13;11.88;;;;;;;12.82;100.00;101667.75;3573839;40;20351;-62
2021/07/03 01:59:10;;;;;;;18.40;12.73;;;;;;;12.86;100.00;101673.75;3575491;40;20044;-62
2021/07/03 02:01:36;;;;;;;20.38;12.48;;;;;;;12.75;100.00;101672.81;3573337;40;20039;-62
2021/07/03 02:04:03;;;;;;;18.70;11.80;;;;;;;12.78;100.00;101671.72;3571700;40;20072;-61
2021/07/03 02:06:30;;;;;;;18.05;12.30;;;;;;;12.70;100.00;101658.84;3579790;40;20044;-61
2021/07/03 02:08:56;;;;;;;19.08;12.07;;;;;;;12.73;100.00;101671.22;3573427;40;20036;-62
2021/07/03 02:11:23;;;;;;;18.27;11.60;;;;;;;12.71;100.00;101670.53;3574587;40;20048;-61
2021/07/03 02:13:51;;;;;;;16.80;11.57;;;;;;;12.68;100.00;101659.97;3572583;40;20038;-61
2021/07/03 02:16:17;;;;;;;17.80;11.73;;;;;;;12.64;100.00;101653.13;3572589;40;20058;-62
2021/07/03 02:18:44;;;;;;;17.10;12.15;;;;;;;12.60;100.00;101664.19;3578494;40;20044;-62
2021/07/03 02:21:10;;;;;;;20.88;12.57;;;;;;;12.58;100.00;101659.88;3575481;40;20053;-62
2021/07/03 02:23:37;;;;;;;22.10;13.15;;;;;;;12.57;100.00;101659.03;3573895;40;20469;-63
2021/07/03 02:26:03;;;;;;;17.30;12.82;;;;;;;12.57;100.00;101655.47;3575116;40;20059;-62
2021/07/03 02:28:30;;;;;;;19.80;12.15;;;;;;;12.63;100.00;101660.34;3577228;40;20416;-62
2021/07/03 02:30:58;;;;;;;17.52;12.13;;;;;;;12.58;100.00;101668.84;3577634;40;20068;-62
2021/07/03 02:33:24;;;;;;;19.08;13.05;;;;;;;12.54;100.00;101667.38;3573267;40;20048;-62
2021/07/03 02:35:51;;;;;;;18.50;12.13;;;;;;;12.60;100.00;101669.59;3574846;40;20322;-62
2021/07/03 02:38:17;;;;;;;18.00;12.40;;;;;;;12.61;100.00;101665.03;3573963;40;20039;-62
2021/07/03 02:40:44;;;;;;;20.75;12.95;;;;;;;12.59;100.00;101662.47;3573654;40;20052;-62
2021/07/03 02:43:12;;;;;;;18.98;12.65;;;;;;;12.60;100.00;101664.19;3576766;40;20116;-63
2021/07/03 02:45:39;;;;;;;18.57;12.43;;;;;;;12.56;100.00;101651.06;3577358;40;20038;-62
2021/07/03 02:48:06;;;;;;;17.55;11.82;;;;;;;12.63;100.00;101646.84;3576156;40;20276;-63
2021/07/03 02:50:33;;;;;;;16.95;12.27;;;;;;;12.62;100.00;101645.16;3573197;40;20384;-62
2021/07/03 02:53:00;;;;;;;18.58;12.10;;;;;;;12.57;100.00;101653.66;3576962;40;20035;-62
2021/07/03 02:55:27;;;;;;;17.98;12.48;;;;;;;12.59;100.00;101646.25;3577719;39;20037;-62
2021/07/03 02:57:54;;;;;;;17.30;12.88;;;;;;;12.58;100.00;101639.13;3572527;40;20648;-62
2021/07/03 03:00:20;;;;;;;18.70;12.25;;;;;;;12.59;100.00;101642.72;3575729;40;20021;-62
2021/07/03 03:02:46;;;;;;;18.67;12.13;;;;;;;12.45;100.00;101638.47;3573189;40;20402;-62
2021/07/03 03:05:15;;;;;;;18.58;12.02;;;;;;;12.42;100.00;101630.63;3575518;40;20049;-62
2021/07/03 03:07:42;;;;;;;18.33;12.43;;;;;;;12.42;100.00;101634.16;3577702;40;20054;-62
2021/07/03 03:10:11;;;;;;;19.17;12.77;;;;;;;12.41;100.00;101628.91;3572549;40;20331;-62
2021/07/03 03:12:38;;;;;;;18.58;12.80;;;;;;;12.47;100.00;101630.22;3573802;40;20052;-62
2021/07/03 03:15:06;;;;;;;18.35;11.57;;;;;;;12.33;100.00;101620.59;3573552;40;20032;-62
2021/07/03 03:17:33;;;;;;;19.98;12.60;;;;;;;12.34;100.00;101635.81;3573167;40;20033;-62
2021/07/03 03:20:00;;;;;;;18.77;12.13;;;;;;;12.40;100.00;101632.59;3573810;40;20029;-62
2021/07/03 03:22:28;;;;;;;22.00;13.13;;;;;;;12.44;100.00;101628.66;3573458;40;20052;-61
2021/07/03 03:24:54;;;;;;;26.88;13.50;;;;;;;12.50;100.00;101622.75;3576399;40;20299;-62
2021/07/03 03:27:21;;;;;;;19.02;11.35;;;;;;;12.57;100.00;101625.75;3574203;40;21084;-62
2021/07/03 03:29:48;;;;;;;15.43;10.68;;;;;;;12.55;100.00;101628.59;3572442;40;20035;-62
2021/07/03 03:32:14;;;;;;;16.58;11.82;;;;;;;12.56;100.00;101630.31;3572795;40;20036;-62
2021/07/03 03:34:41;;;;;;;24.00;12.95;;;;;;;12.54;100.00;101624.16;3573625;40;20367;-62
2021/07/03 03:37:07;;;;;;;17.33;12.35;;;;;;;12.65;100.00;101628.69;3574543;40;20048;-62
2021/07/03 03:42:27;;;;;;;18.02;12.55;;;;;;;12.84;100.00;101618.97;3613121;23;20062;-60
2021/07/03 03:44:53;;;;;;;19.52;13.18;;;;;;;12.89;100.00;101617.59;3589785;39;20286;-62
2021/07/03 03:47:20;;;;;;;21.42;13.57;;;;;;;12.87;100.00;101624.16;3589097;39;20043;-61
2021/07/03 03:49:46;;;;;;;18.70;12.65;;;;;;;13.02;100.00;101624.66;3591250;39;20032;-61
2021/07/03 03:52:13;;;;;;;18.10;13.00;;;;;;;13.12;100.00;101620.16;3591200;39;20058;-61
2021/07/03 03:54:39;;;;;;;18.75;12.35;;;;;;;13.19;100.00;101615.94;3589241;39;20059;-60
2021/07/03 03:57:29;;;;;;;21.33;14.00;;;;;;;13.27;100.00;101621.50;3589415;39;20032;-61
2021/07/03 03:59:57;;;;;;;17.95;13.40;;;;;;;13.35;100.00;101620.84;3592598;39;20334;-61
2021/07/03 04:02:25;;;;;;;18.80;13.10;;;;;;;13.44;100.00;101628.16;3592496;39;20055;-61
2021/07/03 04:04:51;;;;;;;21.45;13.60;;;;;;;13.56;100.00;101623.53;3592286;39;20316;-61
2021/07/03 04:07:19;;;;;;;23.90;15.27;;;;;;;13.64;100.00;101629.06;3591587;39;20405;-61
2021/07/03 04:09:46;;;;;;;19.15;13.48;;;;;;;13.65;100.00;101628.09;3592347;39;20043;-61
2021/07/03 04:12:12;;;;;;;19.83;13.73;;;;;;;13.79;100.00;101620.59;3593092;39;20463;-60
2021/07/03 04:14:39;;;;;;;22.77;14.30;;;;;;;13.83;100.00;101608.50;3591074;39;20040;-61
2021/07/03 04:17:07;;;;;;;21.80;14.77;;;;;;;13.94;100.00;101605.69;3593285;39;20080;-61
2021/07/03 04:19:34;;;;;;;21.35;13.98;;;;;;;13.94;100.00;101605.69;3602401;39;20295;-62
2021/07/03 04:22:00;;;;;;;21.67;15.00;;;;;;;13.83;100.00;101609.34;3603987;39;20394;-60
2021/07/03 04:24:27;;;;;;;19.45;13.20;;;;;;;13.90;100.00;101604.25;3603510;39;20060;-61
2021/07/03 04:26:53;;;;;;;17.83;13.13;;;;;;;14.06;100.00;101606.41;3603420;39;20040;-62
2021/07/03 04:29:20;;;;;;;21.48;13.07;;;;;;;14.05;100.00;101609.25;3602490;39;20429;-61
2021/07/03 04:31:46;;;;;;;19.50;13.02;;;;;;;14.15;100.00;101602.00;3602861;39;20382;-62
2021/07/03 04:34:14;;;;;;;16.92;12.43;;;;;;;14.08;100.00;101606.25;3598311;39;20028;-62
2021/07/03 04:36:41;;;;;;;22.05;13.90;;;;;;;13.97;100.00;101608.09;3588757;39;20107;-62
2021/07/03 04:39:07;;;;;;;20.30;13.32;;;;;;;14.00;100.00;101605.13;3591147;39;20304;-62
2021/07/03 04:41:35;;;;;;;20.92;13.82;;;;;;;14.07;100.00;101599.97;3593806;39;20054;-62
2021/07/03 04:44:01;;;;;;;20.75;13.15;;;;;;;14.15;100.00;101596.59;3590705;39;20741;-62
2021/07/03 04:46:28;;;;;;;19.73;14.20;;;;;;;14.04;100.00;101594.00;3587572;39;20063;-62
2021/07/03 04:48:54;;;;;;;21.45;14.50;;;;;;;14.10;100.00;101598.84;3588329;39;20032;-62
2021/07/03 04:51:22;;;;;;;22.27;14.75;;;;;;;14.00;100.00;101599.69;3595902;39;20296;-62
2021/07/03 04:53:49;;;;;;;23.73;15.75;;;;;;;14.13;100.00;101601.25;3588261;39;20301;-61
2021/07/03 04:56:17;;;;;;;23.52;16.25;;;;;;;14.18;100.00;101601.72;3588845;39;20044;-63
2021/07/03 04:58:43;;;;;;;22.95;15.73;;;;;;;14.17;100.00;101605.41;3589623;39;20040;-62
2021/07/03 05:01:10;;;;;;;25.77;16.23;;;;;;;14.41;100.00;101604.13;3589530;39;20023;-62
2021/07/03 05:03:36;;;;;;;24.80;15.88;;;;;;;14.54;100.00;101601.97;3590516;39;20032;-63
2021/07/03 05:06:03;;;;;;;28.50;15.93;;;;;;;14.68;100.00;101615.13;3590285;39;20353;-63
2021/07/03 05:08:31;;;;;;;26.70;15.60;;;;;;;14.69;100.00;101616.84;3591616;39;20515;-62
2021/07/03 05:10:57;;;;;;;22.70;16.42;;;;;;;14.94;100.00;101619.91;3592080;39;20047;-62
2021/07/03 05:13:24;;;;;;;24.63;15.27;;;;;;;15.21;100.00;101613.72;3588166;39;20284;-62
2021/07/03 05:15:50;;;;;;;22.00;15.30;;;;;;;15.26;100.00;101615.97;3591032;39;20048;-62
2021/07/03 05:18:17;;;;;;;23.85;15.65;;;;;;;15.20;100.00;101608.44;3589264;39;20058;-61
2021/07/03 05:20:43;;;;;;;23.67;16.45;;;;;;;15.37;100.00;101613.09;3590537;39;20040;-62
2021/07/03 05:23:10;;;;;;;20.90;15.40;;;;;;;15.35;100.00;101606.94;3589653;39;20052;-62
2021/07/03 05:25:40;;;;;;;22.35;15.05;;;;;;;15.31;100.00;101616.41;3590252;39;20032;-62
2021/07/03 05:28:07;;;;;;;25.00;15.77;;;;;;;15.44;100.00;101615.19;3589106;39;20034;-62
2021/07/03 05:30:33;;;;;;;23.15;16.27;;;;;;;15.57;100.00;101611.13;3590349;39;20034;-62
2021/07/03 05:33:00;;;;;;;27.95;17.33;;;;;;;15.43;100.00;101606.22;3589856;39;20028;-62
2021/07/03 05:35:26;;;;;;;30.92;17.58;;;;;;;15.48;100.00;101605.75;3589015;39;20070;-62
2021/07/03 05:37:53;;;;;;;24.20;16.48;;;;;;;15.71;100.00;101607.06;3590051;39;20035;-63
2021/07/03 05:40:19;;;;;;;27.17;18.38;;;;;;;15.73;100.00;101605.03;3590311;39;20046;-62
2021/07/03 05:42:47;;;;;;;28.80;19.23;;;;;;;15.64;100.00;101605.94;3589831;39;20044;-62
2021/07/03 05:45:15;;;;;;;29.13;19.40;;;;;;;15.68;100.00;101599.22;3590065;39;20154;-62
2021/07/03 05:50:46;;;;;;;35.47;20.65;;;;;;;15.57;100.00;101599.41;3558378;40;20308;-63
2021/07/03 05:53:12;;;;;;;30.98;18.92;;;;;;;15.64;100.00;101595.09;3561337;40;20310;-62
2021/07/03 05:55:39;;;;;;;32.30;21.45;;;;;;;15.81;100.00;101593.47;3559903;40;20039;-62
2021/07/03 05:58:07;;;;;;;35.83;20.83;;;;;;;16.05;100.00;101589.31;3561159;40;20352;-62
2021/07/03 06:00:33;;;;;;;32.45;20.48;;;;;;;16.09;100.00;101587.97;3558075;40;20065;-62
2021/07/03 06:03:00;;;;;;;36.67;21.10;;;;;;;16.00;100.00;101592.47;3559170;40;20042;-62
2021/07/03 06:05:26;;;;;;;33.78;21.52;;;;;;;16.08;100.00;101591.72;3560886;40;20030;-61
2021/07/03 06:07:53;;;;;;;34.78;22.58;;;;;;;16.29;100.00;101588.69;3558243;40;20040;-61
2021/07/03 06:10:19;;;;;;;30.80;20.52;;;;;;;16.44;100.00;101586.25;3561503;40;20037;-61
2021/07/03 06:12:46;;;;;;;38.58;24.25;;;;;;;16.49;100.00;101583.06;3560055;40;20029;-61
2021/07/03 06:15:15;;;;;;;31.08;21.38;;;;;;;17.05;100.00;101579.09;3558733;40;20041;-61
2021/07/03 06:17:42;;;;;;;34.10;22.02;;;;;;;17.24;100.00;101593.44;3560656;40;20033;-62
2021/07/03 06:20:10;;;;;;;38.55;23.20;;;;;;;17.42;100.00;101590.66;3558997;40;20068;-60
2021/07/03 06:22:37;;;;;;;34.38;21.75;;;;;;;17.71;100.00;101587.56;3562206;40;20065;-61
2021/07/03 06:25:05;;;;;;;34.20;21.60;;;;;;;17.89;100.00;101590.16;3559531;40;20072;-62
2021/07/03 06:27:32;;;;;;;35.63;21.88;;;;;;;17.92;100.00;101586.25;3552880;40;20049;-62
2021/07/03 06:29:59;;;;;;;32.70;20.45;;;;;;;17.98;100.00;101574.72;3559854;40;20029;-62
2021/07/03 06:32:27;;;;;;;30.05;20.00;;;;;;;18.29;100.00;101583.06;3560401;40;20072;-62
2021/07/03 06:34:53;;;;;;;29.67;19.80;;;;;;;18.49;100.00;101577.28;3559617;40;20102;-62
2021/07/03 06:37:20;;;;;;;27.50;19.33;;;;;;;18.70;100.00;101585.81;3559605;40;21398;-61
2021/07/03 06:39:46;;;;;;;28.50;17.55;;;;;;;18.68;100.00;101586.97;3561477;40;20065;-61
2021/07/03 06:42:13;;;;;;;29.30;18.85;;;;;;;18.70;100.00;101583.06;3560158;40;20043;-62
2021/07/03 06:44:42;;;;;;;25.58;18.15;;;;;;;19.15;100.00;101583.50;3558615;40;20047;-61
2021/07/03 06:47:08;;;;;;;;;;;;;;;19.40;100.00;101581.56;3560731;40;20063;-62
2021/07/03 06:49:36;;;;;;;27.45;18.40;;;;;;;19.13;100.00;101579.28;3557707;40;19957;-62
2021/07/03 06:52:03;;;;;;;30.42;17.80;;;;;;;18.96;100.00;101579.28;3559972;40;20404;-61
2021/07/03 06:54:29;;;;;;;22.35;16.33;;;;;;;18.85;100.00;101582.38;3558416;40;20043;-62
2021/07/03 06:56:58;;;;;;;27.85;17.15;;;;;;;18.89;100.00;101578.31;3559252;40;20034;-61
2021/07/03 06:59:25;;;;;;;28.90;18.05;;;;;;;19.02;100.00;101581.34;3561179;40;20372;-62
2021/07/03 07:01:51;;;;;;;28.75;16.90;;;;;;;19.57;100.00;101579.59;3558954;40;20061;-61
2021/07/03 07:04:20;;;;;;;27.25;16.80;;;;;;;19.89;100.00;101577.78;3556973;40;20117;-61
2021/07/03 07:06:48;;;;;;;23.93;16.00;;;;;;;19.81;100.00;101575.06;3560355;40;20374;-62
2021/07/03 07:09:14;;;;;;;25.17;16.40;;;;;;;19.46;100.00;101584.63;3560302;40;20036;-62
2021/07/03 07:11:41;;;;;;;20.95;15.27;;;;;;;19.83;100.00;101573.03;3561528;40;20058;-62
2021/07/03 07:14:07;;;;;;;22.08;14.73;;;;;;;20.06;100.00;101569.47;3558954;40;20037;-62
2021/07/03 07:16:34;;;;;;;23.17;13.98;;;;;;;20.16;100.00;101569.22;3558419;40;20045;-61
2021/07/03 07:19:01;;;;;;;25.02;14.38;;;;;;;20.44;100.00;101566.78;3569472;40;20038;-61
2021/07/03 07:21:28;;;;;;;21.77;13.65;;;;;;;21.00;100.00;101558.22;3561796;40;20025;-61
2021/07/03 07:23:56;;;;;;;20.27;13.40;;;;;;;21.08;100.00;101571.81;3558409;40;20047;-62
2021/07/03 07:26:23;;;;;;;18.00;13.27;;;;;;;21.43;100.00;101568.47;3563179;40;20069;-61
2021/07/03 07:28:50;;;;;;;16.80;12.55;;;;;;;21.33;100.00;101569.63;3560572;40;20489;-62
2021/07/03 07:31:17;;;;;;;17.20;12.88;;;;;;;21.44;100.00;101559.25;3557589;40;20042;-62
2021/07/03 07:33:45;;;;;;;17.90;13.07;;;;;;;21.33;100.00;101561.44;3564133;40;20073;-61
2021/07/03 07:36:11;;;;;;;17.90;12.43;;;;;;;21.47;100.00;101556.13;3558907;40;20040;-62
2021/07/03 07:38:38;;;;;;;18.05;13.32;;;;;;;21.52;100.00;101545.44;3560912;40;20025;-62
2021/07/03 07:41:07;;;;;;;19.58;14.18;;;;;;;21.43;100.00;101555.63;3560572;40;20683;-61
2021/07/03 07:43:34;;;;;;;20.00;14.23;;;;;;;21.98;100.00;101547.00;3560813;40;20033;-62
2021/07/03 07:46:01;;;;;;;17.75;12.27;;;;;;;22.01;100.00;101546.63;3562335;40;20041;-61
2021/07/03 07:48:28;;;;;;;19.45;13.88;;;;;;;21.97;100.00;101531.63;3571908;40;20037;-61
2021/07/03 07:50:56;;;;;;;23.80;13.60;;;;;;;21.64;100.00;101545.81;3575186;40;20017;-61
2021/07/03 07:53:23;;;;;;;18.45;14.13;;;;;;;21.48;100.00;101547.72;3574000;40;20045;-61
2021/07/03 07:55:49;;;;;;;20.33;15.55;;;;;;;21.80;100.00;101548.31;3569451;40;20045;-62
2021/07/03 07:58:17;;;;;;;19.83;15.40;;;;;;;21.77;100.00;101548.69;3571979;40;20428;-61
2021/07/03 08:00:43;;;;;;;19.17;14.55;;;;;;;21.86;100.00;101543.94;3573042;40;20032;-62
2021/07/03 08:03:10;;;;;;;24.85;16.48;;;;;;;21.48;100.00;101534.00;3562722;40;20523;-62
2021/07/03 08:05:37;;;;;;;19.85;14.50;;;;;;;21.45;100.00;101547.22;3559654;40;20081;-62
2021/07/03 08:08:06;;;;;;;19.75;15.25;;;;;;;21.82;100.00;101539.88;3560783;40;20084;-62
2021/07/03 08:10:33;;;;;;;18.48;13.05;;;;;;;22.16;100.00;101543.84;3556974;40;20030;-62
2021/07/03 08:13:00;;;;;;;17.38;12.48;;;;;;;22.71;100.00;101536.72;3556064;40;20033;-62
2021/07/03 08:15:28;;;;;;;19.42;13.98;;;;;;;22.51;100.00;101527.47;3553257;40;20343;-63
2021/07/03 08:17:54;;;;;;;18.25;13.15;;;;;;;22.66;100.00;101532.88;3557316;40;20044;-62
2021/07/03 08:20:22;;;;;;;17.90;12.07;;;;;;;22.85;100.00;101537.66;3558459;40;20045;-62
2021/07/03 08:22:51;;;;;;;15.98;12.45;;;;;;;23.16;100.00;101538.28;3560052;40;20037;-61
2021/07/03 08:25:19;;;;;;;16.00;12.07;;;;;;;22.35;100.00;101525.91;3559465;40;20026;-62
2021/07/03 08:27:46;;;;;;;16.30;11.77;;;;;;;22.48;100.00;101527.88;3557582;40;20053;-63
2021/07/03 08:30:14;;;;;;;16.45;11.80;;;;;;;22.66;100.00;101532.88;3559590;40;20068;-59
2021/07/03 08:32:42;;;;;;;14.73;11.02;;;;;;;22.50;100.00;101523.06;3557718;40;20122;-59
2021/07/03 08:35:10;;;;;;;14.43;10.87;;;;;;;22.67;100.00;101523.59;3556053;40;20049;-59
2021/07/03 08:37:37;;;;;;;14.73;10.20;;;;;;;22.55;100.00;101526.88;3559733;40;20269;-59
2021/07/03 08:40:07;;;;;;;13.85;10.55;;;;;;;22.62;100.00;101520.63;3558794;40;20489;-58
2021/07/03 08:42:34;;;;;;;14.02;10.85;;;;;;;23.25;100.00;101520.59;3557813;40;20619;-58
2021/07/03 08:45:01;;;;;;;13.65;10.18;;;;;;;23.66;100.00;101519.69;3557200;40;20046;-58
2021/07/03 08:47:27;;;;;;;15.95;11.25;;;;;;;23.32;100.00;101510.50;3561200;40;20044;-59
2021/07/03 08:49:57;;;;;;;10.93;8.30;;;;;;;23.60;100.00;101509.50;3563596;40;20636;-59
2021/07/03 08:52:25;;;;;;;14.98;9.30;;;;;;;23.23;100.00;101511.69;3562057;40;20041;-58
2021/07/03 08:54:56;;;;;;;14.88;10.70;;;;;;;23.05;100.00;101502.06;3561111;40;20043;-58
2021/07/03 08:57:22;;;;;;;12.07;9.50;;;;;;;23.32;100.00;101505.00;3559360;40;20404;-59
2021/07/03 08:59:55;;;;;;;13.35;8.88;;;;;;;23.59;100.00;101496.84;3561952;40;21043;-59
2021/07/03 09:02:32;;;;;;;13.20;9.40;;;;;;;23.36;100.00;101498.03;3562829;40;20029;-55
2021/07/03 09:05:00;;;;;;;12.45;9.00;;;;;;;23.42;100.00;101493.59;3559515;40;20043;-55
2021/07/03 09:07:33;;;;;;;12.27;9.88;;;;;;;23.43;100.00;101495.31;3556264;40;20381;-55
2021/07/03 09:09:59;;;;;;;14.18;9.48;;;;;;;23.93;100.00;101489.53;3558189;40;20052;-56
2021/07/03 09:12:30;;;;;;;12.27;10.48;;;;;;;23.89;100.00;101489.09;3554964;40;20054;-55
2021/07/03 09:14:57;;;;;;;15.02;10.40;;;;;;;24.11;100.00;101483.41;3558395;40;20033;-56
2021/07/03 09:17:24;;;;;;;13.25;10.38;;;;;;;23.92;100.00;101491.41;3557227;40;20042;-59
2021/07/03 09:19:52;;;;;;;12.02;9.93;;;;;;;23.84;100.00;101480.59;3559895;40;20037;-59
2021/07/03 09:22:20;;;;;;;14.23;9.75;;;;;;;24.13;100.00;101479.41;3556786;40;20047;-59
2021/07/03 09:24:46;;;;;;;10.20;8.77;;;;;;;24.01;100.00;101481.06;3560746;40;20682;-59
2021/07/03 09:27:13;;;;;;;12.02;8.85;;;;;;;24.42;100.00;101477.25;3560173;40;20033;-60
2021/07/03 09:29:49;;;;;;;11.65;8.30;;;;;;;24.84;100.00;101469.59;3560700;40;20383;-59
2021/07/03 09:32:15;;;;;;;10.48;8.55;;;;;;;24.66;100.00;101466.66;3557005;40;20056;-60
2021/07/03 09:34:42;;;;;;;13.25;9.48;;;;;;;24.67;100.00;101473.88;3558719;40;20042;-60
2021/07/03 09:37:12;;;;;;;11.13;9.35;;;;;;;24.99;100.00;101476.75;3552302;40;20040;-62
2021/07/03 09:39:39;;;;;;;9.93;8.40;;;;;;;25.28;100.00;101474.50;3558017;40;20043;-62
2021/07/03 09:42:13;;;;;;;11.35;8.45;;;;;;;25.22;100.00;101469.88;3559669;40;20392;-62
2021/07/03 09:44:40;;;;;;;11.07;7.25;;;;;;;25.75;100.00;101475.13;3562016;40;20068;-62
2021/07/03 09:47:06;;;;;;;11.85;8.93;;;;;;;25.47;100.00;101479.09;3561062;40;20041;-62
2021/07/03 09:49:33;;;;;;;11.75;8.75;;;;;;;25.14;100.00;101471.81;3562010;40;20057;-62
2021/07/03 09:52:00;;;;;;;11.55;8.35;;;;;;;25.14;100.00;101469.03;3558419;40;20049;-62
2021/07/03 09:54:29;;;;;;;12.05;7.90;;;;;;;24.81;100.00;101471.94;3561439;40;20081;-62
2021/07/03 09:57:00;;;;;;;9.70;7.55;;;;;;;25.31;100.00;101465.84;3562863;40;20285;-62
2021/07/03 09:59:27;;;;;;;10.98;7.85;;;;;;;25.30;100.00;101475.13;3558558;40;20407;-62
2021/07/03 10:01:54;;;;;;;8.80;7.80;;;;;;;25.95;100.00;101463.09;3559278;40;20420;-62
2021/07/03 10:04:21;;;;;;;12.80;7.43;;;;;;;25.55;100.00;101457.88;3557326;40;20047;-62
2021/07/03 10:06:51;;;;;;;9.15;7.47;;;;;;;25.60;100.00;101461.63;3557325;40;20032;-62
2021/07/03 10:09:24;;;;;;;9.82;7.65;;;;;;;25.49;100.00;101460.44;3563596;40;20044;-62
2021/07/03 10:11:52;;;;;;;8.60;7.18;;;;;;;25.84;100.00;101461.91;3560638;40;20303;-62
2021/07/03 10:14:20;;;;;;;8.43;7.45;;;;;;;25.07;100.00;101468.22;3555449;40;20049;-60
2021/07/03 10:16:47;;;;;;;10.50;7.80;;;;;;;24.82;100.00;101465.34;3558407;40;20044;-62
2021/07/03 10:19:15;;;;;;;10.57;7.70;;;;;;;24.71;100.00;101464.13;3559021;40;20049;-61
2021/07/03 10:21:43;;;;;;;8.63;7.60;;;;;;;24.66;100.00;101462.03;3560151;40;20064;-62
2021/07/03 10:24:17;;;;;;;9.07;8.00;;;;;;;24.91;100.00;101463.22;3558289;40;20275;-61
2021/07/03 10:26:44;;;;;;;9.40;7.88;;;;;;;25.07;100.00;101459.13;3558123;40;20277;-63
2021/07/03 10:29:18;;;;;;;10.32;7.07;;;;;;;25.36;100.00;101452.25;3559718;40;20048;-62
2021/07/03 10:31:47;;;;;;;10.88;7.85;;;;;;;25.12;100.00;101449.16;3561675;40;20139;-62
2021/07/03 10:34:13;;;;;;;8.95;7.15;;;;;;;25.05;100.00;101447.50;3563131;40;20039;-62
2021/07/03 10:36:40;;;;;;;12.88;7.82;;;;;;;25.32;100.00;101443.59;3564595;40;20037;-62
2021/07/03 10:39:08;;;;;;;10.07;8.02;;;;;;;24.98;100.00;101442.00;3561422;40;21351;-62
2021/07/03 10:41:36;;;;;;;9.45;8.07;;;;;;;24.79;100.00;101449.28;3560030;40;20049;-62
2021/07/03 10:44:08;;;;;;;8.85;6.90;;;;;;;25.65;100.00;101441.69;3557729;40;20041;-63
2021/07/03 10:46:36;;;;;;;9.27;6.82;;;;;;;25.84;100.00;101440.69;3558840;40;20049;-62
2021/07/03 10:49:06;;;;;;;7.85;5.90;;;;;;;26.32;100.00;101438.41;3561220;40;20110;-62
2021/07/03 10:51:40;;;;;;;7.38;6.45;;;;;;;27.02;83.55;101440.00;3561148;40;20281;-63
2021/07/03 10:54:19;;;;;;;9.63;6.95;;;;;;;26.11;99.98;101436.91;3558635;40;20037;-62
2021/07/03 10:56:49;;;;;;;8.90;7.38;;;;;;;27.04;86.70;101429.56;3560455;40;20042;-62
2021/07/03 10:59:17;;;;;;;7.85;6.40;;;;;;;27.96;85.26;101423.75;3563710;40;20069;-62
2021/07/03 11:01:44;;;;;;;7.45;6.05;;;;;;;28.18;80.78;101419.56;3564070;40;20474;-62
2021/07/03 11:04:20;;;;;;;10.45;6.57;;;;;;;27.21;83.14;101430.59;3561112;40;20056;-62
2021/07/03 11:06:50;;;;;;;7.50;5.95;;;;;;;26.23;93.89;101424.88;3559407;40;20088;-63
2021/07/03 11:09:27;;;;;;;7.72;6.15;;;;;;;26.07;100.00;101419.13;3560515;40;20086;-63
2021/07/03 11:11:56;;;;;;;9.23;6.82;;;;;;;25.92;91.77;101413.91;3558276;40;20482;-62